Flight Track Log - Related Links

Times and Time Zones

All times are in EDT time to prevent confusion due to time zone crossing. See the SWA920 flight status page for this flight to view local times or setup timezone preferences in your user account.

Time Position Orientation Groundspeed Altitude Reporting Facility
EDT Latitude Longitude Course Direction KTS MPH feet Rate Location/Type
Tue 03:56:43 PM 41.7483 -87.7928 218° Southwest 179 206 3,100  Level Chicago Center
Tue 03:57:45 PM 41.7011 -87.8428 218° Southwest 205 236 5,100 1,872 Climbing Chicago Center
Tue 03:58:48 PM 41.6444 -87.8944 214° Southwest 231 266 7,000 3,000 Climbing Chicago Center
Tue 03:59:49 PM 41.5706 -87.8881 176° South 266 306 11,300 4,098 Climbing Chicago Center
Tue 04:00:51 PM 41.4747 -87.8819 177° South 286 329 15,400 3,145 Climbing Chicago Center
Tue 04:01:53 PM 41.3775 -87.8792 179° South 346 398 17,800 2,565 Climbing Chicago Center
Tue 04:02:55 PM 41.2731 -87.8906 185° South 369 425 20,700 2,806 Climbing Chicago Center
Tue 04:03:57 PM 41.1614 -87.8903 180° South 394 453 23,600 2,758 Climbing Chicago Center
Tue 04:04:59 PM 41.0483 -87.8861 178° South 405 466 26,400 2,304 Climbing Chicago Center
Tue 04:06:02 PM 40.9317 -87.8833 179° South 414 476 28,400 2,208 Climbing Chicago Center
Tue 04:07:04 PM 40.8114 -87.8661 174° South 432 497 31,000 2,226 Climbing Chicago Center
Tue 04:08:06 PM 40.6722 -87.8406 172° South 424 488 33,000 968 Climbing Chicago Center
Tue 04:09:08 PM 40.5553 -87.8189 172° South 425 489 33,000  Level Chicago Center
Tue 04:10:10 PM 40.4392 -87.7967 172° South 425 489 33,000  Level Chicago Center
Tue 04:11:11 PM 40.3125 -87.7739 172° South 426 490 33,000  Level Indianapolis Center
Tue 04:12:13 PM 40.1936 -87.7531 172° South 428 493 33,000  Level Indianapolis Center
Tue 04:13:15 PM 40.0753 -87.7317 172° South 427 491 33,000  Level Indianapolis Center
Tue 04:14:17 PM 39.9569 -87.7097 172° South 428 493 33,000  Level Indianapolis Center
Tue 04:15:19 PM 39.8178 -87.6856 172° South 430 495 33,000  Level Indianapolis Center
Tue 04:16:21 PM 39.6989 -87.6636 172° South 431 496 33,000  Level Indianapolis Center
Tue 04:17:23 PM 39.5800 -87.6422 172° South 430 495 33,000  Level Indianapolis Center
Tue 04:18:25 PM 39.4603 -87.6206 172° South 431 496 33,000  Level Indianapolis Center
Tue 04:19:27 PM 39.3403 -87.5992 172° South 434 499 33,000  Level Indianapolis Center
Tue 04:20:29 PM 39.2200 -87.5775 172° South 434 499 33,000  Level Indianapolis Center
Tue 04:21:31 PM 39.1003 -87.5569 172° South 434 499 33,000  Level Indianapolis Center
Tue 04:22:33 PM 38.9561 -87.5300 172° South 435 501 33,000  Level Indianapolis Center
Tue 04:23:35 PM 38.8358 -87.5103 173° South 436 502 33,000  Level Indianapolis Center
Tue 04:24:37 PM 38.7161 -87.4892 172° South 434 499 33,000  Level Indianapolis Center
Tue 04:25:39 PM 38.5972 -87.4681 172° South 432 497 33,000 -339 Level Indianapolis Center
Tue 04:26:41 PM 38.4792 -87.4467 172° South 431 496 32,300 -823 Descending Indianapolis Center
Tue 04:27:43 PM 38.3664 -87.3975 161° South 433 498 31,300 -629 Descending Indianapolis Center
Tue 04:28:45 PM 38.2314 -87.3458 163° South 427 491 31,000 -387 Descending Indianapolis Center
Tue 04:29:47 PM 38.1144 -87.3356 176° South 425 489 30,500 -726 Descending Indianapolis Center
Tue 04:30:49 PM 37.9986 -87.3231 175° South 421 484 29,500 -1,248 Descending Indianapolis Center
Tue 04:31:52 PM 37.8825 -87.3114 175° South 419 482 27,900 -1,536 Descending Indianapolis Center
Tue 04:32:54 PM 37.7611 -87.2989 175° South 419 482 26,300 -1,597 Descending Indianapolis Center
Tue 04:33:56 PM 37.6472 -87.2858 175° South 408 470 24,600 -1,597 Descending Indianapolis Center
Tue 04:34:58 PM 37.5167 -87.2731 176° South 397 457 23,000 -787 Descending Indianapolis Center
Tue 04:35:58 PM 37.4058 -87.2631 176° South 402 463 23,000 -50 Level Memphis Center
Tue 04:36:58 PM 37.3094 -87.2433 171° South 402 463 22,900 -600 Descending Memphis Center
Tue 04:37:58 PM 37.1983 -87.2111 167° South 407 468 21,800 -1,500 Descending Memphis Center
Tue 04:38:18 PM 37.1481 -87.2003 170° South 398 458 20,900 -1,900 Descending Memphis Center
Tue 04:38:58 PM 37.0953 -87.1789 162° South 402 463 19,900 -1,967 Descending Memphis Center
Tue 04:39:19 PM 37.0472 -87.1706 172° South 387 445 18,900 -2,100 Descending Memphis Center
Tue 04:39:58 PM 36.9925 -87.1492 163° South 385 443 17,800 -2,164 Descending Memphis Center
Tue 04:40:20 PM 36.9400 -87.1383 171° South 370 426 16,700 -2,486 Descending Memphis Center
Tue 04:41:08 PM 36.8622 -87.1131 165° South 360 414 14,900 -2,020 Descending Memphis Center
Tue 04:41:58 PM 36.7992 -87.0869 162° South 360 414 13,400 -1,909 Descending Memphis Center
Tue 04:42:58 PM 36.7058 -87.0314 154° Southeast 348 400 11,400 -1,650 Descending Memphis Center
Tue 04:43:58 PM 36.6253 -86.9803 153° Southeast 338 389 10,100 -1,300 Descending Memphis Center
Tue 04:44:58 PM 36.5614 -86.9261 146° Southeast 305 351 8,800 -1,450 Descending Memphis Center
Tue 04:45:58 PM 36.4972 -86.8722 146° Southeast 285 328 7,200 -1,450 Descending Memphis Center
Tue 04:46:58 PM 36.4333 -86.8206 147° Southeast 285 328 5,900 -1,300 Descending Memphis Center
Tue 04:47:58 PM 36.3714 -86.7692 146° Southeast 280 322 4,600 -1,350 Descending Memphis Center
Tue 04:48:58 PM 36.3158 -86.7253 148° Southeast 280 322 3,200 -1,050 Descending Memphis Center
Tue 04:49:58 PM 36.2581 -86.6764 146° Southeast 267 307 2,500 -550 Descending Memphis Center
Tue 04:50:58 PM 36.2111 -86.6400 148° Southeast 227 261 2,100 -600 Descending Memphis Center
Tue 04:51:58 PM 36.1697 -86.6469 188° South 156 180 1,300 -700 Descending Memphis Center
Tue 04:52:58 PM 36.1367 -86.6589 196° South 145 167 700 -600 Descending Memphis Center
Tue 04:54:00 PM 36.1167 -86.6667 208° Southwest  Level FlightAware Approximate
Tue 05:01:00 PM 36.1245 -86.6782 208° Southwest  Level Estimated
Tue 05:02:00 PM 36.1245 -86.6782 208° Southwest  Level Estimated
Tue 05:03:00 PM 36.1245 -86.6782 208° Southwest  Level Estimated
Tue 05:04:00 PM 36.1245 -86.6782 208° Southwest  Level Estimated
Tue 05:05:00 PM 36.1245 -86.6782 208° Southwest  Level Estimated
Tue 05:06:00 PM 36.1245 -86.6782 208° Southwest  Level Estimated
Tue 05:07:00 PM 36.1245 -86.6782 208° Southwest  Level Estimated
Tue 05:08:00 PM 36.1245 -86.6782 208° Southwest  Level Estimated
Tue 05:09:00 PM 36.1245 -86.6782 208° Southwest  Level Estimated

Login

Don't have an account? Register now (free) for customized features, flight alerts, and more!